createdAt,value
2023-01-19T00:02:07.087Z,34.60
2023-01-19T00:04:48.131Z,34.83
2023-01-19T00:07:24.169Z,31.50
2023-01-19T00:09:57.146Z,32.50
2023-01-19T00:12:30.124Z,32.25
2023-01-19T00:15:03.541Z,31.65
2023-01-19T00:17:37.926Z,30.58
2023-01-19T00:20:12.222Z,30.77
2023-01-19T00:22:45.159Z,31.50
2023-01-19T00:25:18.403Z,32.00
2023-01-19T00:27:51.357Z,29.25
2023-01-19T00:30:24.343Z,27.73
2023-01-19T00:32:59.623Z,28.07
2023-01-19T00:35:33.125Z,27.42
2023-01-19T00:38:06.310Z,26.73
2023-01-19T00:40:39.706Z,28.33
2023-01-19T00:43:12.656Z,26.67
2023-01-19T00:45:46.918Z,28.20
2023-01-19T00:48:21.292Z,26.58
2023-01-19T00:50:54.248Z,25.35
2023-01-19T00:53:29.156Z,26.65
2023-01-19T00:56:02.083Z,24.70
2023-01-19T00:58:35.044Z,23.85
2023-01-19T01:01:08.143Z,24.13
2023-01-19T01:03:42.864Z,23.30
2023-01-19T01:06:17.720Z,25.30
2023-01-19T01:08:50.863Z,24.45
2023-01-19T01:11:23.856Z,23.45
2023-01-19T01:13:56.885Z,22.43
2023-01-19T01:16:31.949Z,24.60
2023-01-19T01:19:06.376Z,24.17
2023-01-19T01:21:39.605Z,22.08
2023-01-19T01:24:12.644Z,23.58
2023-01-19T01:26:46.034Z,26.03
2023-01-19T01:29:19.012Z,25.23
2023-01-19T01:31:52.130Z,24.50
2023-01-19T01:34:26.573Z,24.85
2023-01-19T01:36:59.552Z,27.02
2023-01-19T01:39:32.517Z,24.73
2023-01-19T01:42:15.476Z,26.08
2023-01-19T01:44:51.210Z,26.38
2023-01-19T01:47:32.094Z,25.88
2023-01-19T01:50:14.325Z,27.38
2023-01-19T01:53:06.300Z,25.80
2023-01-19T01:55:47.879Z,24.50
2023-01-19T01:58:20.870Z,26.35
2023-01-19T02:01:19.779Z,26.55
2023-01-19T02:03:54.065Z,25.92
2023-01-19T02:06:30.320Z,27.30
2023-01-19T02:09:29.271Z,25.60
2023-01-19T02:12:19.540Z,25.95
2023-01-19T02:14:52.532Z,24.08
2023-01-19T02:17:25.743Z,24.83
2023-01-19T02:19:59.006Z,25.52
2023-01-19T02:22:39.007Z,26.85
2023-01-19T02:25:13.631Z,26.95
2023-01-19T02:27:47.101Z,25.80
2023-01-19T02:30:20.512Z,26.38
2023-01-19T02:32:53.445Z,24.95
2023-01-19T02:35:27.033Z,27.02
2023-01-19T02:38:00.318Z,26.23
2023-01-19T02:40:35.091Z,24.63
2023-01-19T02:43:09.203Z,27.48
2023-01-19T02:45:43.568Z,26.80
2023-01-19T02:48:18.016Z,25.95
2023-01-19T02:50:55.027Z,28.35
2023-01-19T02:54:03.773Z,25.45
2023-01-19T02:56:50.322Z,26.15
2023-01-19T02:59:45.797Z,26.90
2023-01-19T03:02:27.791Z,27.67
2023-01-19T03:05:13.942Z,27.70
2023-01-19T03:07:57.598Z,27.27
2023-01-19T03:10:39.357Z,27.58
2023-01-19T03:13:20.430Z,26.40
2023-01-19T03:15:58.052Z,25.77
2023-01-19T03:18:34.578Z,26.00
2023-01-19T03:21:08.969Z,27.15
2023-01-19T03:23:48.626Z,25.58
2023-01-19T03:26:27.245Z,27.13
2023-01-19T03:29:04.620Z,25.35
2023-01-19T03:31:39.338Z,25.13
2023-01-19T03:34:14.670Z,27.08
2023-01-19T03:36:52.211Z,24.40
2023-01-19T03:39:27.799Z,23.45
2023-01-19T03:42:04.139Z,25.27
2023-01-19T03:44:40.683Z,25.77
2023-01-19T03:47:15.905Z,25.42
2023-01-19T03:49:50.902Z,25.33
2023-01-19T03:52:32.557Z,25.45
2023-01-19T03:55:07.297Z,26.17
2023-01-19T03:57:40.324Z,26.00
2023-01-19T04:00:16.383Z,25.37
2023-01-19T04:02:49.368Z,25.77
2023-01-19T04:05:22.416Z,26.02
2023-01-19T04:07:55.347Z,25.43
2023-01-19T04:10:28.287Z,25.53
2023-01-19T04:13:03.085Z,25.47
2023-01-19T04:15:37.591Z,24.88
2023-01-19T04:18:10.561Z,28.30
2023-01-19T04:20:43.540Z,27.42
2023-01-19T04:23:16.526Z,30.13
2023-01-19T04:25:49.488Z,27.43
2023-01-19T04:28:22.467Z,29.67
2023-01-19T04:30:56.998Z,30.37
2023-01-19T04:33:30.448Z,27.20
2023-01-19T04:36:04.085Z,28.52
2023-01-19T04:38:37.226Z,27.30
2023-01-19T04:41:10.247Z,29.75
2023-01-19T04:43:43.250Z,27.97
2023-01-19T04:46:17.771Z,27.93
2023-01-19T04:48:50.976Z,26.50
2023-01-19T04:51:24.015Z,27.88
2023-01-19T04:53:57.801Z,27.90
2023-01-19T04:56:30.795Z,27.08
2023-01-19T04:59:03.816Z,25.53
2023-01-19T05:01:38.215Z,27.70
2023-01-19T05:04:11.186Z,26.83
2023-01-19T05:06:44.186Z,29.20
2023-01-19T05:09:17.134Z,28.80
2023-01-19T05:11:50.075Z,29.08
2023-01-19T05:14:23.338Z,28.65
2023-01-19T05:16:58.102Z,29.48
2023-01-19T05:19:31.156Z,30.98
2023-01-19T05:22:05.037Z,31.75
2023-01-19T05:24:38.070Z,30.30
2023-01-19T05:27:11.389Z,28.70
2023-01-19T05:29:44.356Z,28.73
2023-01-19T05:32:18.667Z,28.97
2023-01-19T05:34:51.648Z,27.77
2023-01-19T05:37:24.613Z,30.33
2023-01-19T05:39:57.589Z,28.13
2023-01-19T05:42:32.691Z,27.27
2023-01-19T05:45:07.230Z,30.80
2023-01-19T05:47:41.584Z,27.90
2023-01-19T05:50:14.757Z,25.17
2023-01-19T05:52:48.045Z,26.80
2023-01-19T05:55:21.295Z,25.23
2023-01-19T05:57:54.340Z,26.42
2023-01-19T06:00:30.006Z,26.97
2023-01-19T06:03:06.499Z,27.10
2023-01-19T06:05:39.714Z,26.10
2023-01-19T06:08:12.710Z,27.23
2023-01-19T06:10:45.805Z,28.25
2023-01-19T06:13:19.192Z,25.98
2023-01-19T06:15:58.150Z,29.25
2023-01-19T06:18:32.535Z,29.23
2023-01-19T06:21:07.394Z,24.98
2023-01-19T06:23:40.342Z,27.75
2023-01-19T06:26:13.577Z,28.85
2023-01-19T06:28:46.702Z,32.05
2023-01-19T06:31:19.826Z,32.33
2023-01-19T06:33:54.215Z,29.60
2023-01-19T06:36:27.230Z,28.52
2023-01-19T06:39:00.479Z,30.93
2023-01-19T06:41:33.835Z,30.55
2023-01-19T06:44:06.904Z,30.35
2023-01-19T06:46:39.824Z,28.43
2023-01-19T06:49:14.162Z,29.73
2023-01-19T06:51:47.136Z,31.38
2023-01-19T06:54:20.204Z,27.97
2023-01-19T06:56:53.729Z,28.90
2023-01-19T06:59:26.729Z,27.75
2023-01-19T07:01:59.908Z,27.37
2023-01-19T07:04:54.098Z,29.77
2023-01-19T07:07:27.242Z,26.17
2023-01-19T07:10:00.165Z,26.15
2023-01-19T07:12:33.791Z,26.48
2023-01-19T07:15:09.513Z,26.08
2023-01-19T07:17:42.733Z,27.73
2023-01-19T07:20:19.535Z,27.33
2023-01-19T07:22:57.377Z,26.92
2023-01-19T07:25:30.412Z,27.20
2023-01-19T07:28:04.499Z,27.33
2023-01-19T07:30:37.592Z,30.30
2023-01-19T07:33:10.728Z,27.90
2023-01-19T07:35:49.320Z,28.05
2023-01-19T07:38:22.918Z,28.10
2023-01-19T07:41:01.473Z,28.10
2023-01-19T07:43:35.049Z,28.80
2023-01-19T07:48:44.491Z,25.83
2023-01-19T07:51:19.048Z,27.35
2023-01-19T07:53:52.281Z,26.20
2023-01-19T07:56:27.843Z,25.90
2023-01-19T07:59:00.940Z,27.08
2023-01-19T08:01:34.119Z,28.07
2023-01-19T08:04:07.280Z,27.85
2023-01-19T08:06:42.072Z,27.80
2023-01-19T08:09:15.031Z,27.25
2023-01-19T08:11:48.113Z,25.83
2023-01-19T08:14:21.176Z,27.42
2023-01-19T08:16:54.176Z,27.87
2023-01-19T08:19:27.360Z,26.92
2023-01-19T08:22:02.443Z,27.30
2023-01-19T08:24:35.409Z,27.50
2023-01-19T08:27:09.841Z,28.52
2023-01-19T08:29:42.877Z,28.77
2023-01-19T08:32:16.070Z,28.83
2023-01-19T08:34:49.142Z,28.45
2023-01-19T08:37:24.818Z,27.03
2023-01-19T08:39:57.775Z,27.27
2023-01-19T08:42:30.887Z,30.27
2023-01-19T08:45:03.990Z,28.58
2023-01-19T08:47:36.989Z,28.85
2023-01-19T08:50:11.931Z,30.33
2023-01-19T08:52:46.286Z,30.42
2023-01-19T08:55:19.463Z,30.50
2023-01-19T08:57:53.643Z,28.92
2023-01-19T09:00:27.878Z,29.75
2023-01-19T09:03:02.209Z,33.80
2023-01-19T09:05:38.950Z,28.23
2023-01-19T09:08:15.234Z,31.42
2023-01-19T09:10:49.834Z,34.28
2023-01-19T09:13:28.215Z,31.40
2023-01-19T09:16:03.746Z,32.90
2023-01-19T09:18:37.121Z,31.17
2023-01-19T09:21:10.560Z,32.00
2023-01-19T09:23:45.300Z,33.90
2023-01-19T09:26:18.294Z,33.95
2023-01-19T09:28:51.335Z,35.17
2023-01-19T09:31:24.597Z,36.90
2023-01-19T09:33:57.824Z,37.17
2023-01-19T09:36:32.449Z,38.85
2023-01-19T09:39:06.790Z,31.50
2023-01-19T09:41:43.967Z,35.53
2023-01-19T09:44:20.678Z,34.83
2023-01-19T09:46:53.669Z,36.22
2023-01-19T09:49:32.369Z,36.45
2023-01-19T09:52:05.462Z,29.08
2023-01-19T09:54:45.377Z,31.67
2023-01-19T09:57:18.391Z,28.77
2023-01-19T09:59:51.803Z,31.40
2023-01-19T10:02:36.856Z,36.03
2023-01-19T10:05:25.412Z,31.40
2023-01-19T10:08:13.702Z,30.13
2023-01-19T10:10:52.943Z,32.22
2023-01-19T10:13:40.613Z,29.98
2023-01-19T10:16:31.556Z,32.08
2023-01-19T10:19:19.122Z,32.55
2023-01-19T10:21:54.297Z,34.70
2023-01-19T10:24:33.168Z,33.88
2023-01-19T10:27:22.058Z,31.67
2023-01-19T10:29:55.687Z,32.92
2023-01-19T10:32:32.318Z,36.22
2023-01-19T10:35:21.680Z,33.70
2023-01-19T10:37:57.788Z,38.10
2023-01-19T10:40:37.432Z,35.95
2023-01-19T10:43:38.494Z,35.00
2023-01-19T10:46:22.545Z,35.10
2023-01-19T10:48:57.124Z,32.03
2023-01-19T10:51:30.727Z,34.00
2023-01-19T10:54:05.737Z,34.25
2023-01-19T10:56:39.884Z,32.85
2023-01-19T11:02:17.022Z,29.30
2023-01-19T11:04:52.977Z,30.30
2023-01-19T11:07:30.186Z,31.63
2023-01-19T11:10:24.005Z,29.60
2023-01-19T11:13:03.342Z,32.05
2023-01-19T11:15:42.305Z,30.13
2023-01-19T11:18:27.055Z,29.00
2023-01-19T11:21:02.990Z,28.88
2023-01-19T11:23:42.078Z,27.75
2023-01-19T11:26:17.187Z,28.83
2023-01-19T11:28:53.189Z,26.67
2023-01-19T11:31:33.941Z,29.30
2023-01-19T11:34:26.359Z,27.92
2023-01-19T11:37:01.989Z,26.38
2023-01-19T11:39:48.274Z,25.52
2023-01-19T11:42:21.478Z,26.58
2023-01-19T11:45:03.011Z,28.08
2023-01-19T11:47:42.447Z,25.35
2023-01-19T11:50:24.753Z,25.98
2023-01-19T11:53:02.568Z,23.17
2023-01-19T11:55:40.840Z,29.75
2023-01-19T11:58:16.916Z,26.40
2023-01-19T12:00:53.157Z,27.80
2023-01-19T12:03:31.757Z,27.90
2023-01-19T12:06:10.941Z,26.23
2023-01-19T12:08:47.984Z,27.77
2023-01-19T12:11:24.964Z,28.67
2023-01-19T12:13:58.007Z,26.52
2023-01-19T12:16:32.985Z,26.20
2023-01-19T12:19:11.989Z,25.38
2023-01-19T12:21:48.996Z,27.33
2023-01-19T12:24:31.016Z,26.33
2023-01-19T12:27:16.172Z,26.95
2023-01-19T12:29:49.930Z,24.27
2023-01-19T12:32:34.857Z,25.17
2023-01-19T12:35:31.985Z,27.65
2023-01-19T12:38:33.728Z,26.63
2023-01-19T12:41:22.349Z,26.17
2023-01-19T12:44:30.557Z,29.52
2023-01-19T12:47:26.605Z,27.13
2023-01-19T12:50:06.899Z,25.42
2023-01-19T12:52:47.960Z,25.88
2023-01-19T12:55:30.999Z,27.05
2023-01-19T12:58:08.224Z,24.17
2023-01-19T13:00:43.445Z,25.98
2023-01-19T13:03:46.334Z,25.95
2023-01-19T13:06:19.336Z,24.45
2023-01-19T13:09:02.117Z,25.63
2023-01-19T13:12:00.731Z,26.17
2023-01-19T13:14:37.573Z,27.00
2023-01-19T13:17:33.082Z,26.27
2023-01-19T13:20:20.010Z,25.75
2023-01-19T13:23:18.088Z,25.38
2023-01-19T13:25:54.743Z,24.65
2023-01-19T13:28:34.199Z,24.35
2023-01-19T13:31:09.917Z,23.67
2023-01-19T13:33:50.733Z,40.08
2023-01-19T13:36:31.621Z,25.70
2023-01-19T13:39:07.720Z,25.02
2023-01-19T13:41:42.514Z,23.55
2023-01-19T13:44:23.739Z,24.27
2023-01-19T13:46:59.724Z,25.13
2023-01-19T13:49:36.633Z,25.75
2023-01-19T13:52:15.234Z,25.52
2023-01-19T13:54:49.998Z,22.92
2023-01-19T13:57:28.369Z,25.67
2023-01-19T14:00:18.076Z,25.23
2023-01-19T14:02:57.398Z,26.50
2023-01-19T14:05:32.609Z,26.90
2023-01-19T14:08:13.060Z,27.38
2023-01-19T14:10:48.194Z,27.08
2023-01-19T14:13:26.421Z,27.27
2023-01-19T14:16:05.859Z,28.67
2023-01-19T14:18:38.872Z,27.48
2023-01-19T14:21:13.781Z,27.67
2023-01-19T14:23:49.080Z,27.70
2023-01-19T14:26:42.296Z,28.33
2023-01-19T14:29:26.499Z,28.80
2023-01-19T14:34:46.954Z,26.73
2023-01-19T14:37:23.223Z,28.30
2023-01-19T14:40:04.513Z,28.60
2023-01-19T14:42:45.067Z,30.02
2023-01-19T14:45:21.013Z,27.25
2023-01-19T14:47:59.642Z,27.73
2023-01-19T14:50:35.733Z,43.78
2023-01-19T14:53:18.138Z,30.42
2023-01-19T14:55:56.682Z,30.70
2023-01-19T14:58:33.461Z,31.15
2023-01-19T15:01:06.679Z,32.85
2023-01-19T15:03:45.579Z,33.45
2023-01-19T15:06:21.396Z,31.58
2023-01-19T15:08:54.694Z,33.03
2023-01-19T15:11:31.242Z,29.17
2023-01-19T15:14:04.600Z,30.13
2023-01-19T15:16:37.819Z,30.13
2023-01-19T15:19:15.188Z,30.67
2023-01-19T15:21:48.329Z,30.00
2023-01-19T15:24:21.323Z,31.00
2023-01-19T15:26:54.314Z,31.63
2023-01-19T15:29:29.192Z,32.93
2023-01-19T15:32:03.919Z,32.55
2023-01-19T15:34:38.340Z,30.95
2023-01-19T15:37:11.426Z,30.52
2023-01-19T15:39:44.438Z,30.90
2023-01-19T15:42:17.506Z,29.50
2023-01-19T15:44:50.505Z,32.90
2023-01-19T15:47:23.497Z,33.90
2023-01-19T15:49:57.895Z,29.70
2023-01-19T15:52:30.902Z,32.33
2023-01-19T15:55:09.968Z,32.77
2023-01-19T15:57:43.231Z,30.98
2023-01-19T16:00:17.317Z,32.13
2023-01-19T16:02:52.112Z,30.10
2023-01-19T16:05:41.319Z,34.90
2023-01-19T16:08:15.364Z,34.65
2023-01-19T16:10:48.560Z,35.50
2023-01-19T16:13:21.708Z,30.83
2023-01-19T16:15:54.870Z,32.38
2023-01-19T16:18:27.956Z,31.30
2023-01-19T16:21:02.797Z,31.05
2023-01-19T16:23:35.910Z,34.25
2023-01-19T16:26:23.758Z,32.15
2023-01-19T16:29:08.008Z,33.20
2023-01-19T16:34:15.100Z,32.58
2023-01-19T16:36:50.214Z,32.13
2023-01-19T16:39:23.191Z,34.75
2023-01-19T16:41:56.191Z,35.00
2023-01-19T16:44:29.297Z,33.60
2023-01-19T16:47:04.410Z,32.58
2023-01-19T16:49:40.336Z,33.17
2023-01-19T16:52:14.711Z,33.35
2023-01-19T16:54:47.769Z,34.50
2023-01-19T16:57:27.008Z,32.57
2023-01-19T17:00:00.133Z,34.17
2023-01-19T17:02:36.455Z,33.13
2023-01-19T17:07:37.897Z,31.48
2023-01-19T17:10:12.550Z,33.97
2023-01-19T17:12:45.851Z,33.67
2023-01-19T17:15:18.990Z,32.23
2023-01-19T17:17:52.040Z,31.80
2023-01-19T17:20:25.044Z,33.85
2023-01-19T17:22:59.601Z,33.47
2023-01-19T17:25:32.847Z,30.45
2023-01-19T17:28:06.275Z,32.22
2023-01-19T17:30:39.447Z,30.58
2023-01-19T17:33:12.751Z,30.45
2023-01-19T17:35:46.900Z,30.67
2023-01-19T17:38:26.712Z,33.25
2023-01-19T17:41:00.173Z,30.27
2023-01-19T17:43:33.434Z,31.92
2023-01-19T17:46:06.966Z,31.65
2023-01-19T17:48:40.872Z,31.67
2023-01-19T17:53:48.609Z,29.63
2023-01-19T17:56:26.236Z,31.48
2023-01-19T17:59:00.156Z,30.15
2023-01-19T18:01:34.423Z,30.45
2023-01-19T18:04:08.451Z,29.50
2023-01-19T18:09:16.168Z,26.85
2023-01-19T18:11:49.185Z,28.92
2023-01-19T18:14:22.205Z,31.23
2023-01-19T18:16:55.204Z,25.57
2023-01-19T18:19:37.423Z,24.93
2023-01-19T18:22:10.414Z,24.38
2023-01-19T18:24:45.724Z,25.53
2023-01-19T18:27:43.351Z,24.75
2023-01-19T18:30:17.392Z,26.45
2023-01-19T18:32:51.603Z,27.95
2023-01-19T18:35:24.570Z,28.67
2023-01-19T18:37:58.603Z,28.85
2023-01-19T18:40:33.037Z,27.92
2023-01-19T18:43:06.065Z,29.00
2023-01-19T18:45:41.771Z,30.07
2023-01-19T18:48:16.766Z,29.00
2023-01-19T18:50:50.968Z,31.10
2023-01-19T18:53:24.453Z,29.80
2023-01-19T18:56:01.919Z,29.98
2023-01-19T18:58:38.115Z,29.15
2023-01-19T19:01:22.973Z,27.52
2023-01-19T19:03:57.014Z,29.00
2023-01-19T19:09:03.449Z,30.55
2023-01-19T19:11:37.867Z,28.58
2023-01-19T19:14:11.177Z,30.02
2023-01-19T19:16:44.194Z,28.42
2023-01-19T19:19:17.296Z,27.53
2023-01-19T19:21:52.126Z,28.03
2023-01-19T19:24:25.153Z,28.17
2023-01-19T19:26:59.579Z,27.63
2023-01-19T19:29:33.653Z,30.00
2023-01-19T19:32:09.796Z,29.30
2023-01-19T19:34:47.777Z,29.83
2023-01-19T19:37:22.921Z,28.38
2023-01-19T19:39:57.693Z,28.60
2023-01-19T19:42:32.060Z,28.98
2023-01-19T19:45:05.576Z,30.08
2023-01-19T19:47:38.652Z,30.48
2023-01-19T19:50:12.816Z,31.03
2023-01-19T19:52:46.152Z,30.25
2023-01-19T19:55:19.405Z,29.33
2023-01-19T19:57:55.286Z,29.30
2023-01-19T20:00:30.233Z,30.02
2023-01-19T20:03:03.409Z,28.77
2023-01-19T20:05:36.989Z,29.90
2023-01-19T20:08:10.124Z,31.00
2023-01-19T20:10:44.409Z,30.60
2023-01-19T20:13:19.295Z,30.83
2023-01-19T20:15:53.892Z,30.67
2023-01-19T20:18:27.210Z,31.35
2023-01-19T20:21:02.535Z,27.30
2023-01-19T20:23:35.720Z,29.58
2023-01-19T20:26:14.879Z,29.52
2023-01-19T20:28:49.435Z,28.13
2023-01-19T20:31:24.860Z,29.10
2023-01-19T20:33:59.766Z,29.38
2023-01-19T20:36:38.703Z,29.70
2023-01-19T20:39:22.395Z,29.08
2023-01-19T20:41:55.873Z,28.45
2023-01-19T20:44:30.377Z,31.88
2023-01-19T20:47:11.381Z,28.75
2023-01-19T20:49:44.534Z,29.73
2023-01-19T20:52:17.686Z,31.27
2023-01-19T20:54:53.200Z,30.65
2023-01-19T20:57:27.711Z,30.00
2023-01-19T21:00:04.242Z,31.08
2023-01-19T21:02:37.329Z,31.02
2023-01-19T21:05:11.274Z,31.75
2023-01-19T21:07:44.491Z,29.40
2023-01-19T21:10:22.753Z,30.73
2023-01-19T21:12:56.058Z,31.85
2023-01-19T21:15:30.714Z,32.10
2023-01-19T21:18:03.840Z,28.27
2023-01-19T21:20:37.008Z,29.58
2023-01-19T21:23:10.039Z,28.37
2023-01-19T21:25:50.882Z,28.63
2023-01-19T21:28:24.831Z,31.05
2023-01-19T21:33:33.092Z,28.88
2023-01-19T21:38:41.062Z,28.70
2023-01-19T21:41:17.274Z,30.05
2023-01-19T21:43:50.306Z,30.52
2023-01-19T21:46:29.051Z,27.48
2023-01-19T21:49:04.059Z,27.73
2023-01-19T21:51:38.055Z,28.48
2023-01-19T21:56:44.265Z,27.63
2023-01-19T21:59:20.234Z,38.92
2023-01-19T22:01:55.750Z,28.83
2023-01-19T22:04:28.831Z,30.63
2023-01-19T22:07:01.816Z,28.07
2023-01-19T22:09:35.211Z,28.93
2023-01-19T22:12:09.945Z,31.15
2023-01-19T22:14:43.016Z,26.63
2023-01-19T22:17:20.447Z,27.75
2023-01-19T22:19:53.451Z,26.17
2023-01-19T22:22:28.607Z,28.27
2023-01-19T22:25:01.862Z,29.55
2023-01-19T22:27:34.863Z,28.67
2023-01-19T22:30:10.564Z,27.90
2023-01-19T22:32:47.517Z,26.75
2023-01-19T22:35:21.262Z,26.08
2023-01-19T22:37:54.315Z,28.65
2023-01-19T22:40:30.356Z,30.98
2023-01-19T22:43:03.516Z,31.85
2023-01-19T22:45:37.001Z,31.13
2023-01-19T22:48:11.299Z,34.75
2023-01-19T22:50:44.263Z,36.30
2023-01-19T22:53:17.286Z,34.20
2023-01-19T22:55:50.331Z,34.27
2023-01-19T22:58:23.307Z,36.30
2023-01-19T23:00:56.425Z,37.50
2023-01-19T23:03:31.951Z,37.85
2023-01-19T23:06:06.096Z,38.88
2023-01-19T23:08:39.538Z,38.55
2023-01-19T23:11:14.002Z,38.50
2023-01-19T23:13:47.090Z,40.40
2023-01-19T23:16:20.649Z,39.73
2023-01-19T23:18:55.890Z,41.85
2023-01-19T23:21:30.731Z,44.10
2023-01-19T23:24:05.528Z,43.53
2023-01-19T23:26:38.972Z,43.78
2023-01-19T23:29:14.636Z,44.75
2023-01-19T23:31:49.161Z,41.95
2023-01-19T23:34:23.719Z,42.95
2023-01-19T23:36:56.924Z,41.30
2023-01-19T23:39:30.030Z,41.70
2023-01-19T23:42:03.594Z,41.30
2023-01-19T23:44:36.847Z,40.17
2023-01-19T23:47:09.789Z,39.97
2023-01-19T23:49:44.149Z,37.13
2023-01-19T23:52:17.138Z,38.67
2023-01-19T23:54:50.097Z,37.53
2023-01-19T23:57:23.095Z,36.88
2023-01-19T23:59:56.071Z,39.25
